EXS8VW GCLP-EGNT
Flight info
| Callsign | EXS8VW |
|---|---|
| Flight time | 4h 8m |
| Altitude | 39000 |
| Route | VASTO DCT NIDEB DCT TIGGI DCT GANSU DCT UDRUB DCT PINEK DCT KORUL DCT KOLEK DCT EBOMO DCT RUSIB DCT NOZHU DCT BHD DCT WIGGU DCT AZCAL DCT AVTIC DCT ANJAK N38 NOKIN UP17 POL |
| Aircraft | B738/M-SDE2E3FGHIRWXY/LB1 |
Departure
| Time | 2026-04-28 19:52 |
|---|---|
| Airport | Gran Canaria Airport (GCLP) |
Arrival
| Time | 2026-04-29 00:00 |
|---|---|
| Airport | Newcastle International Airport (EGNT) |
| Time | Latitude | Longitude | Altitude | Speed | Heading |
|---|---|---|---|---|---|
| 2026-04-28 19:47 | 27.93460 | -15.38871 | 81 ft | 10 kts | 152° |
| 2026-04-28 19:48 | 27.93424 | -15.38799 | 68 ft | 12 kts | 111° |
| 2026-04-28 19:48 | 27.93350 | -15.38782 | 66 ft | 14 kts | 201° |
| 2026-04-28 19:48 | 27.93248 | -15.38826 | 72 ft | 19 kts | 202° |
| 2026-04-28 19:48 | 27.93103 | -15.38896 | 68 ft | 24 kts | 202° |
| 2026-04-28 19:49 | 27.92951 | -15.38966 | 74 ft | 23 kts | 202° |
| 2026-04-28 19:49 | 27.92804 | -15.39027 | 86 ft | 22 kts | 200° |
| 2026-04-28 19:49 | 27.92661 | -15.39088 | 90 ft | 22 kts | 201° |
| 2026-04-28 19:49 | 27.92538 | -15.39145 | 92 ft | 21 kts | 202° |
| 2026-04-28 19:50 | 27.92275 | -15.39262 | 98 ft | 20 kts | 201° |
| 2026-04-28 19:50 | 27.92145 | -15.39305 | 96 ft | 20 kts | 182° |
| 2026-04-28 19:50 | 27.92000 | -15.39297 | 90 ft | 22 kts | 177° |
| 2026-04-28 19:51 | 27.91892 | -15.39200 | 86 ft | 22 kts | 116° |
| 2026-04-28 19:51 | 27.91853 | -15.39088 | 74 ft | 16 kts | 111° |
| 2026-04-28 19:51 | 27.91899 | -15.38998 | 66 ft | 16 kts | 21° |
| 2026-04-28 19:51 | 27.91922 | -15.38988 | 72 ft | 3 kts | 21° |
| 2026-04-28 19:52 | 27.92170 | -15.38878 | 60 ft | 79 kts | 21° |
| 2026-04-28 19:52 | 27.92924 | -15.38549 | 44 ft | 150 kts | 21° |
| 2026-04-28 19:52 | 27.93969 | -15.38068 | 579 ft | 170 kts | 22° |
| 2026-04-28 19:52 | 27.95059 | -15.37548 | 1506 ft | 174 kts | 21° |
| 2026-04-28 19:53 | 27.96175 | -15.37052 | 2368 ft | 176 kts | 17° |
| 2026-04-28 19:53 | 27.97346 | -15.36592 | 2997 ft | 186 kts | 17° |
| 2026-04-28 19:53 | 27.98626 | -15.36071 | 3404 ft | 208 kts | 16° |
| 2026-04-28 19:53 | 28.00060 | -15.35472 | 3617 ft | 230 kts | 17° |
| 2026-04-28 19:54 | 28.01608 | -15.34821 | 4078 ft | 241 kts | 18° |
| 2026-04-28 19:54 | 28.03215 | -15.34145 | 4587 ft | 256 kts | 18° |
| 2026-04-28 19:54 | 28.04923 | -15.33427 | 5263 ft | 264 kts | 18° |
| 2026-04-28 19:54 | 28.06649 | -15.32701 | 6095 ft | 266 kts | 19° |
| 2026-04-28 19:55 | 28.08382 | -15.31973 | 6984 ft | 265 kts | 19° |
| 2026-04-28 19:55 | 28.10133 | -15.31239 | 7668 ft | 272 kts | 18° |
| 2026-04-28 19:55 | 28.11932 | -15.30486 | 8351 ft | 279 kts | 18° |
| 2026-04-28 19:55 | 28.13761 | -15.29720 | 9113 ft | 282 kts | 18° |
| 2026-04-28 19:56 | 28.15646 | -15.29037 | 9856 ft | 287 kts | 13° |
| 2026-04-28 19:56 | 28.17614 | -15.28477 | 10374 ft | 299 kts | 11° |
| 2026-04-28 19:56 | 28.19725 | -15.27907 | 10532 ft | 323 kts | 11° |
| 2026-04-28 19:56 | 28.21941 | -15.27239 | 10725 ft | 345 kts | 19° |
| 2026-04-28 19:57 | 28.24094 | -15.25938 | 11235 ft | 355 kts | 30° |
| 2026-04-28 19:57 | 28.26187 | -15.24406 | 11885 ft | 360 kts | 31° |
| 2026-04-28 19:57 | 28.28291 | -15.22836 | 12558 ft | 364 kts | 31° |
| 2026-04-28 19:57 | 28.30420 | -15.21248 | 13234 ft | 368 kts | 31° |
| 2026-04-28 19:58 | 28.32584 | -15.19644 | 13924 ft | 372 kts | 31° |
| 2026-04-28 19:58 | 28.34772 | -15.18033 | 14553 ft | 377 kts | 31° |
| 2026-04-28 19:58 | 28.36980 | -15.16416 | 15240 ft | 379 kts | 31° |
| 2026-04-28 19:58 | 28.39210 | -15.14789 | 15916 ft | 383 kts | 31° |
| 2026-04-28 19:59 | 28.41460 | -15.13151 | 16597 ft | 386 kts | 31° |
| 2026-04-28 19:59 | 28.43707 | -15.11518 | 17243 ft | 390 kts | 31° |
| 2026-04-28 19:59 | 28.45999 | -15.09851 | 17895 ft | 393 kts | 31° |
| 2026-04-28 19:59 | 28.48319 | -15.08165 | 18497 ft | 397 kts | 31° |
| 2026-04-28 20:00 | 28.50654 | -15.06466 | 19066 ft | 400 kts | 31° |
| 2026-04-28 20:00 | 28.53006 | -15.04755 | 19649 ft | 403 kts | 31° |
| 2026-04-28 20:00 | 28.55370 | -15.03034 | 20227 ft | 405 kts | 31° |
| 2026-04-28 20:00 | 28.57752 | -15.01298 | 20790 ft | 408 kts | 31° |
| 2026-04-28 20:01 | 28.60158 | -14.99545 | 21344 ft | 411 kts | 31° |
| 2026-04-28 20:01 | 28.62580 | -14.97779 | 21874 ft | 414 kts | 31° |
| 2026-04-28 20:01 | 28.65011 | -14.96005 | 22402 ft | 417 kts | 31° |
| 2026-04-28 20:01 | 28.67467 | -14.94212 | 22921 ft | 420 kts | 31° |
| 2026-04-28 20:02 | 28.69097 | -14.93022 | 23245 ft | 422 kts | 31° |
| 2026-04-28 20:02 | 28.71581 | -14.91207 | 23750 ft | 425 kts | 31° |
| 2026-04-28 20:02 | 28.74074 | -14.89384 | 24178 ft | 427 kts | 31° |
| 2026-04-28 20:02 | 28.76584 | -14.87548 | 24589 ft | 430 kts | 31° |
| 2026-04-28 20:03 | 28.79112 | -14.85697 | 24973 ft | 433 kts | 31° |
| 2026-04-28 20:03 | 28.81655 | -14.83835 | 25371 ft | 436 kts | 31° |
| 2026-04-28 20:03 | 28.84220 | -14.81955 | 25767 ft | 439 kts | 31° |
| 2026-04-28 20:03 | 28.86794 | -14.80068 | 26161 ft | 442 kts | 31° |
| 2026-04-28 20:04 | 28.89392 | -14.78162 | 26530 ft | 445 kts | 30° |
| 2026-04-28 20:04 | 28.91996 | -14.76249 | 26900 ft | 447 kts | 30° |
| 2026-04-28 20:04 | 28.94627 | -14.74317 | 27259 ft | 450 kts | 30° |
| 2026-04-28 20:04 | 28.97262 | -14.72380 | 27624 ft | 453 kts | 30° |
| 2026-04-28 20:05 | 28.99921 | -14.70424 | 27965 ft | 455 kts | 30° |
| 2026-04-28 20:05 | 29.02589 | -14.68460 | 28331 ft | 458 kts | 31° |
| 2026-04-28 20:05 | 29.05268 | -14.66487 | 28718 ft | 459 kts | 30° |
| 2026-04-28 20:05 | 29.07963 | -14.64501 | 29069 ft | 462 kts | 30° |
| 2026-04-28 20:06 | 29.10671 | -14.62504 | 29377 ft | 464 kts | 30° |
| 2026-04-28 20:06 | 29.13395 | -14.60494 | 29694 ft | 467 kts | 30° |
| 2026-04-28 20:06 | 29.16130 | -14.58475 | 30023 ft | 469 kts | 30° |
| 2026-04-28 20:06 | 29.18867 | -14.56452 | 30434 ft | 467 kts | 30° |
| 2026-04-28 20:07 | 29.21546 | -14.54470 | 30943 ft | 463 kts | 30° |
| 2026-04-28 20:07 | 29.23369 | -14.53121 | 31254 ft | 461 kts | 30° |
| 2026-04-28 20:07 | 29.26970 | -14.50455 | 31724 ft | 461 kts | 30° |
| 2026-04-28 20:07 | 29.29633 | -14.48482 | 32018 ft | 462 kts | 30° |
| 2026-04-28 20:08 | 29.32330 | -14.46484 | 32402 ft | 461 kts | 30° |
| 2026-04-28 20:08 | 29.35018 | -14.44491 | 32827 ft | 459 kts | 30° |
| 2026-04-28 20:08 | 29.37688 | -14.42509 | 33226 ft | 457 kts | 30° |
| 2026-04-28 20:08 | 29.40358 | -14.40526 | 33554 ft | 458 kts | 30° |
| 2026-04-28 20:09 | 29.43036 | -14.38536 | 33860 ft | 458 kts | 30° |
| 2026-04-28 20:09 | 29.45710 | -14.36549 | 34045 ft | 461 kts | 30° |
| 2026-04-28 20:09 | 29.48417 | -14.34536 | 34135 ft | 464 kts | 30° |
| 2026-04-28 20:09 | 29.51122 | -14.32523 | 34485 ft | 462 kts | 30° |
| 2026-04-28 20:10 | 29.53806 | -14.30522 | 34866 ft | 459 kts | 30° |
| 2026-04-28 20:10 | 29.56474 | -14.28532 | 35211 ft | 457 kts | 30° |
| 2026-04-28 20:10 | 29.59138 | -14.26544 | 35498 ft | 456 kts | 30° |
| 2026-04-28 20:10 | 29.61804 | -14.24554 | 35719 ft | 457 kts | 30° |
| 2026-04-28 20:11 | 29.64471 | -14.22563 | 35968 ft | 457 kts | 30° |
| 2026-04-28 20:11 | 29.67132 | -14.20574 | 36253 ft | 456 kts | 29° |
| 2026-04-28 20:11 | 29.69790 | -14.18586 | 36575 ft | 455 kts | 29° |
| 2026-04-28 20:11 | 29.72436 | -14.16606 | 36808 ft | 455 kts | 29° |
| 2026-04-28 20:12 | 29.75097 | -14.14614 | 36982 ft | 456 kts | 29° |
| 2026-04-28 20:12 | 29.77765 | -14.12616 | 37102 ft | 459 kts | 29° |
| 2026-04-28 20:12 | 29.80447 | -14.10607 | 37208 ft | 462 kts | 29° |
| 2026-04-28 20:12 | 29.83148 | -14.08581 | 37330 ft | 464 kts | 29° |
| 2026-04-28 20:13 | 29.85862 | -14.06544 | 37469 ft | 466 kts | 29° |
| 2026-04-28 20:13 | 29.88588 | -14.04496 | 37593 ft | 468 kts | 29° |
| 2026-04-28 20:13 | 29.91320 | -14.02442 | 37704 ft | 470 kts | 29° |
| 2026-04-28 20:14 | 29.96784 | -13.98330 | 37911 ft | 473 kts | 29° |
| 2026-04-28 20:14 | 29.99544 | -13.96251 | 38014 ft | 474 kts | 29° |
| 2026-04-28 20:14 | 30.02315 | -13.94162 | 38029 ft | 476 kts | 29° |
| 2026-04-28 20:15 | 30.07878 | -13.89964 | 38030 ft | 479 kts | 29° |
| 2026-04-28 20:15 | 30.13461 | -13.85745 | 38035 ft | 480 kts | 29° |
| 2026-04-28 20:16 | 30.19052 | -13.81514 | 38018 ft | 479 kts | 29° |
| 2026-04-28 20:16 | 30.24602 | -13.77307 | 38037 ft | 475 kts | 29° |
| 2026-04-28 20:17 | 30.30118 | -13.73121 | 38020 ft | 473 kts | 29° |
| 2026-04-28 20:17 | 30.35575 | -13.68976 | 38026 ft | 471 kts | 29° |
| 2026-04-28 20:18 | 30.41055 | -13.64807 | 38033 ft | 471 kts | 29° |
| 2026-04-28 20:18 | 30.46548 | -13.60622 | 38024 ft | 472 kts | 29° |
| 2026-04-28 20:19 | 30.52059 | -13.56475 | 38024 ft | 471 kts | 27° |
| 2026-04-28 20:19 | 30.57783 | -13.52794 | 38031 ft | 470 kts | 24° |
| 2026-04-28 20:20 | 30.63540 | -13.49304 | 38027 ft | 470 kts | 23° |
| 2026-04-28 20:20 | 30.69325 | -13.45749 | 38027 ft | 470 kts | 24° |
| 2026-04-28 20:21 | 30.75077 | -13.42156 | 38023 ft | 470 kts | 24° |
| 2026-04-28 20:21 | 30.80834 | -13.38532 | 38023 ft | 470 kts | 24° |
| 2026-04-28 20:22 | 30.86577 | -13.34909 | 38027 ft | 469 kts | 24° |
| 2026-04-28 20:22 | 30.92276 | -13.31312 | 38026 ft | 468 kts | 24° |
| 2026-04-28 20:23 | 30.97998 | -13.27697 | 38019 ft | 468 kts | 24° |
| 2026-04-28 20:23 | 31.03718 | -13.24078 | 38020 ft | 467 kts | 24° |
| 2026-04-28 20:24 | 31.09431 | -13.20460 | 38019 ft | 467 kts | 24° |
| 2026-04-28 20:24 | 31.15138 | -13.16839 | 38029 ft | 467 kts | 24° |
| 2026-04-28 20:25 | 31.20841 | -13.13216 | 38036 ft | 466 kts | 24° |
| 2026-04-28 20:25 | 31.26527 | -13.09599 | 38010 ft | 465 kts | 24° |
| 2026-04-28 20:26 | 31.32205 | -13.05981 | 38026 ft | 464 kts | 24° |
| 2026-04-28 20:26 | 31.37838 | -13.02388 | 38013 ft | 463 kts | 24° |
| 2026-04-28 20:27 | 31.43491 | -12.98777 | 38020 ft | 463 kts | 24° |
| 2026-04-28 20:27 | 31.49138 | -12.95165 | 38014 ft | 462 kts | 24° |
| 2026-04-28 20:28 | 31.54774 | -12.91555 | 38009 ft | 461 kts | 24° |
| 2026-04-28 20:28 | 31.60405 | -12.87943 | 38012 ft | 461 kts | 24° |
| 2026-04-28 20:29 | 31.66034 | -12.84327 | 38009 ft | 461 kts | 24° |
| 2026-04-28 20:29 | 31.71662 | -12.80708 | 38027 ft | 461 kts | 24° |
| 2026-04-28 20:30 | 31.77286 | -12.77085 | 38019 ft | 461 kts | 24° |
| 2026-04-28 20:30 | 31.82900 | -12.73464 | 38013 ft | 460 kts | 24° |
| 2026-04-28 20:31 | 31.88508 | -12.69841 | 38011 ft | 459 kts | 24° |
| 2026-04-28 20:31 | 31.94107 | -12.66219 | 38004 ft | 459 kts | 24° |
| 2026-04-28 20:32 | 31.99669 | -12.62617 | 38030 ft | 459 kts | 24° |
| 2026-04-28 20:32 | 32.05264 | -12.58988 | 38012 ft | 459 kts | 24° |
| 2026-04-28 20:33 | 32.10848 | -12.55361 | 38008 ft | 458 kts | 24° |
| 2026-04-28 20:33 | 32.16439 | -12.51724 | 38003 ft | 458 kts | 24° |
| 2026-04-28 20:34 | 32.22021 | -12.48088 | 38000 ft | 458 kts | 24° |
| 2026-04-28 20:34 | 32.27602 | -12.44447 | 38025 ft | 458 kts | 24° |
| 2026-04-28 20:35 | 32.33178 | -12.40805 | 38005 ft | 458 kts | 24° |
| 2026-04-28 20:35 | 32.38718 | -12.37180 | 38007 ft | 458 kts | 24° |
| 2026-04-28 20:36 | 32.44296 | -12.33526 | 37998 ft | 457 kts | 24° |
| 2026-04-28 20:36 | 32.49862 | -12.29875 | 38000 ft | 457 kts | 24° |
| 2026-04-28 20:37 | 32.55420 | -12.26223 | 37999 ft | 457 kts | 24° |
| 2026-04-28 20:37 | 32.60975 | -12.22568 | 38003 ft | 457 kts | 24° |
| 2026-04-28 20:38 | 32.66525 | -12.18912 | 37999 ft | 456 kts | 24° |
| 2026-04-28 20:38 | 32.72073 | -12.15250 | 37996 ft | 456 kts | 24° |
| 2026-04-28 20:39 | 32.77582 | -12.11610 | 37997 ft | 456 kts | 24° |
| 2026-04-28 20:39 | 32.83121 | -12.07945 | 37998 ft | 455 kts | 24° |
| 2026-04-28 20:40 | 32.88663 | -12.04272 | 38005 ft | 455 kts | 24° |
| 2026-04-28 20:40 | 32.94203 | -12.00596 | 37995 ft | 456 kts | 24° |
| 2026-04-28 20:41 | 32.99999 | -11.97783 | 38010 ft | 447 kts | 11° |
| 2026-04-28 20:41 | 33.05989 | -11.95814 | 37997 ft | 447 kts | 11° |
| 2026-04-28 20:42 | 33.11984 | -11.93850 | 38003 ft | 447 kts | 11° |
| 2026-04-28 20:42 | 33.17975 | -11.91841 | 37990 ft | 447 kts | 11° |
| 2026-04-28 20:43 | 33.23921 | -11.89819 | 37989 ft | 447 kts | 11° |
| 2026-04-28 20:43 | 33.29896 | -11.87779 | 37992 ft | 447 kts | 11° |
| 2026-04-28 20:44 | 33.35878 | -11.85733 | 37991 ft | 446 kts | 11° |
| 2026-04-28 20:44 | 33.41844 | -11.83691 | 37999 ft | 446 kts | 11° |
| 2026-04-28 20:45 | 33.47813 | -11.81645 | 37989 ft | 446 kts | 11° |
| 2026-04-28 20:45 | 33.53775 | -11.79599 | 37992 ft | 445 kts | 11° |
| 2026-04-28 20:46 | 33.59729 | -11.77553 | 37988 ft | 445 kts | 11° |
| 2026-04-28 20:46 | 33.65681 | -11.75505 | 38011 ft | 445 kts | 11° |
| 2026-04-28 20:47 | 33.71590 | -11.73469 | 37983 ft | 444 kts | 11° |
| 2026-04-28 20:47 | 33.77534 | -11.71417 | 37984 ft | 444 kts | 11° |
| 2026-04-28 20:48 | 33.83470 | -11.69365 | 37995 ft | 444 kts | 11° |
| 2026-04-28 20:48 | 33.89405 | -11.67311 | 37973 ft | 444 kts | 12° |
| 2026-04-28 20:49 | 33.95343 | -11.65252 | 37985 ft | 444 kts | 12° |
| 2026-04-28 20:49 | 34.01272 | -11.63194 | 37987 ft | 444 kts | 12° |
| 2026-04-28 20:50 | 34.07200 | -11.61133 | 37980 ft | 443 kts | 12° |
| 2026-04-28 20:50 | 34.13132 | -11.59068 | 37989 ft | 443 kts | 12° |
| 2026-04-28 20:51 | 34.19055 | -11.57002 | 38008 ft | 443 kts | 11° |
| 2026-04-28 20:51 | 34.24982 | -11.54933 | 37990 ft | 443 kts | 11° |
| 2026-04-28 20:52 | 34.30911 | -11.52859 | 37982 ft | 443 kts | 11° |
| 2026-04-28 20:52 | 34.36832 | -11.50785 | 37974 ft | 443 kts | 11° |
| 2026-04-28 20:53 | 34.45677 | -11.47682 | 37994 ft | 443 kts | 11° |
| 2026-04-28 20:53 | 34.51601 | -11.45600 | 37977 ft | 443 kts | 11° |
| 2026-04-28 20:54 | 34.57514 | -11.43518 | 37977 ft | 442 kts | 11° |
| 2026-04-28 20:54 | 34.63431 | -11.41432 | 37975 ft | 442 kts | 11° |
| 2026-04-28 20:55 | 34.68344 | -11.39698 | 37979 ft | 442 kts | 11° |
| 2026-04-28 20:55 | 34.74255 | -11.37608 | 37984 ft | 442 kts | 11° |
| 2026-04-28 20:56 | 34.80180 | -11.35511 | 37979 ft | 443 kts | 11° |
| 2026-04-28 20:56 | 34.86071 | -11.33422 | 37975 ft | 443 kts | 11° |
| 2026-04-28 20:57 | 34.91990 | -11.31320 | 37979 ft | 443 kts | 11° |
| 2026-04-28 20:57 | 34.97917 | -11.29212 | 37995 ft | 443 kts | 11° |
| 2026-04-28 20:58 | 35.03847 | -11.27100 | 37986 ft | 444 kts | 11° |
| 2026-04-28 20:58 | 35.09748 | -11.24996 | 37974 ft | 445 kts | 11° |
| 2026-04-28 20:59 | 35.15693 | -11.22871 | 37967 ft | 445 kts | 11° |
| 2026-04-28 20:59 | 35.21635 | -11.20745 | 37969 ft | 445 kts | 11° |
| 2026-04-28 21:00 | 35.27583 | -11.18614 | 37975 ft | 445 kts | 11° |
| 2026-04-28 21:00 | 35.33533 | -11.16478 | 37972 ft | 445 kts | 11° |
| 2026-04-28 21:01 | 35.39445 | -11.14353 | 37963 ft | 445 kts | 11° |
| 2026-04-28 21:01 | 35.45392 | -11.12212 | 37964 ft | 445 kts | 11° |
| 2026-04-28 21:02 | 35.51343 | -11.10066 | 37966 ft | 445 kts | 11° |
| 2026-04-28 21:02 | 35.57288 | -11.07920 | 37964 ft | 445 kts | 11° |
| 2026-04-28 21:03 | 35.63229 | -11.05771 | 37964 ft | 445 kts | 11° |
| 2026-04-28 21:03 | 35.69175 | -11.03617 | 37961 ft | 445 kts | 11° |
| 2026-04-28 21:04 | 35.75120 | -11.01460 | 37985 ft | 445 kts | 11° |
| 2026-04-28 21:04 | 35.81036 | -10.99310 | 37971 ft | 446 kts | 11° |
| 2026-04-28 21:05 | 35.86987 | -10.97144 | 37959 ft | 446 kts | 11° |
| 2026-04-28 21:05 | 35.92940 | -10.94974 | 37960 ft | 446 kts | 11° |
| 2026-04-28 21:06 | 35.98870 | -10.92609 | 37956 ft | 451 kts | 17° |
| 2026-04-28 21:06 | 36.04645 | -10.89531 | 37962 ft | 454 kts | 19° |
| 2026-04-28 21:07 | 36.10409 | -10.86334 | 37953 ft | 455 kts | 18° |
| 2026-04-28 21:07 | 36.16199 | -10.83169 | 37952 ft | 455 kts | 18° |
| 2026-04-28 21:08 | 36.22009 | -10.80033 | 37951 ft | 455 kts | 18° |
| 2026-04-28 21:08 | 36.27784 | -10.76925 | 37966 ft | 456 kts | 18° |
| 2026-04-28 21:09 | 36.33615 | -10.73784 | 37955 ft | 457 kts | 18° |
| 2026-04-28 21:09 | 36.39446 | -10.70635 | 37945 ft | 457 kts | 18° |
| 2026-04-28 21:10 | 36.45279 | -10.67479 | 37949 ft | 457 kts | 18° |
| 2026-04-28 21:10 | 36.51115 | -10.64316 | 37947 ft | 457 kts | 18° |
| 2026-04-28 21:11 | 36.56951 | -10.61148 | 37948 ft | 458 kts | 18° |
| 2026-04-28 21:11 | 36.62798 | -10.57969 | 37942 ft | 459 kts | 18° |
| 2026-04-28 21:12 | 36.68650 | -10.54782 | 37945 ft | 459 kts | 19° |
| 2026-04-28 21:12 | 36.74472 | -10.51605 | 37941 ft | 459 kts | 19° |
| 2026-04-28 21:13 | 36.80316 | -10.48412 | 37943 ft | 459 kts | 19° |
| 2026-04-28 21:13 | 36.86173 | -10.45206 | 37943 ft | 459 kts | 19° |
| 2026-04-28 21:14 | 36.92028 | -10.41996 | 37941 ft | 459 kts | 19° |
| 2026-04-28 21:14 | 36.97879 | -10.38782 | 37937 ft | 459 kts | 19° |
| 2026-04-28 21:15 | 37.03696 | -10.35582 | 37956 ft | 459 kts | 19° |
| 2026-04-28 21:15 | 37.09555 | -10.32353 | 37943 ft | 460 kts | 20° |
| 2026-04-28 21:16 | 37.15420 | -10.29116 | 37938 ft | 460 kts | 20° |
| 2026-04-28 21:16 | 37.21281 | -10.25875 | 37930 ft | 460 kts | 20° |
| 2026-04-28 21:17 | 37.27145 | -10.22627 | 37932 ft | 461 kts | 20° |
| 2026-04-28 21:17 | 37.32975 | -10.19393 | 37940 ft | 462 kts | 20° |
| 2026-04-28 21:18 | 37.38859 | -10.16123 | 37930 ft | 463 kts | 20° |
| 2026-04-28 21:18 | 37.44750 | -10.12843 | 37927 ft | 464 kts | 20° |
| 2026-04-28 21:19 | 37.50650 | -10.09553 | 37924 ft | 464 kts | 20° |
| 2026-04-28 21:19 | 37.56568 | -10.06246 | 37930 ft | 465 kts | 21° |
| 2026-04-28 21:20 | 37.62498 | -10.02928 | 37923 ft | 466 kts | 21° |
| 2026-04-28 21:20 | 37.68427 | -9.99604 | 37921 ft | 467 kts | 21° |
| 2026-04-28 21:21 | 37.74377 | -9.96262 | 37918 ft | 467 kts | 21° |
| 2026-04-28 21:21 | 37.80323 | -9.92916 | 37919 ft | 468 kts | 21° |
| 2026-04-28 21:22 | 37.86248 | -9.89576 | 37921 ft | 469 kts | 21° |
| 2026-04-28 21:22 | 37.91204 | -9.86778 | 37915 ft | 469 kts | 21° |
| 2026-04-28 21:23 | 37.98172 | -9.82838 | 37911 ft | 469 kts | 21° |
| 2026-04-28 21:23 | 38.04330 | -9.80262 | 37927 ft | 465 kts | 11° |
| 2026-04-28 21:24 | 38.10636 | -9.78437 | 37912 ft | 465 kts | 10° |
| 2026-04-28 21:24 | 38.16913 | -9.76633 | 37909 ft | 465 kts | 10° |
| 2026-04-28 21:25 | 38.23214 | -9.74756 | 37910 ft | 465 kts | 11° |
| 2026-04-28 21:25 | 38.29530 | -9.72835 | 37913 ft | 466 kts | 11° |
| 2026-04-28 21:26 | 38.35840 | -9.70904 | 37907 ft | 466 kts | 11° |
| 2026-04-28 21:26 | 38.42129 | -9.68977 | 37908 ft | 467 kts | 11° |
| 2026-04-28 21:27 | 38.48450 | -9.67038 | 37904 ft | 467 kts | 11° |
| 2026-04-28 21:27 | 38.54788 | -9.65092 | 37907 ft | 468 kts | 11° |
| 2026-04-28 21:28 | 38.61126 | -9.63142 | 37905 ft | 469 kts | 11° |
| 2026-04-28 21:28 | 38.67447 | -9.61194 | 37904 ft | 469 kts | 11° |
| 2026-04-28 21:29 | 38.73794 | -9.59234 | 37914 ft | 469 kts | 12° |
| 2026-04-28 21:29 | 38.80154 | -9.57267 | 37894 ft | 470 kts | 12° |
| 2026-04-28 21:30 | 38.86512 | -9.55296 | 37905 ft | 471 kts | 12° |
| 2026-04-28 21:30 | 38.92892 | -9.53315 | 37894 ft | 471 kts | 12° |
| 2026-04-28 21:31 | 38.99236 | -9.51342 | 37901 ft | 471 kts | 12° |
| 2026-04-28 21:31 | 39.05616 | -9.49353 | 37897 ft | 472 kts | 12° |
| 2026-04-28 21:32 | 39.12004 | -9.47359 | 37887 ft | 472 kts | 12° |
| 2026-04-28 21:32 | 39.18402 | -9.45358 | 37883 ft | 472 kts | 12° |
| 2026-04-28 21:33 | 39.24785 | -9.43357 | 37895 ft | 472 kts | 12° |
| 2026-04-28 21:33 | 39.31139 | -9.41362 | 37887 ft | 472 kts | 12° |
| 2026-04-28 21:34 | 39.37538 | -9.39349 | 37889 ft | 473 kts | 12° |
| 2026-04-28 21:34 | 39.43936 | -9.37333 | 37893 ft | 473 kts | 12° |
| 2026-04-28 21:35 | 39.50327 | -9.35315 | 37885 ft | 473 kts | 12° |
| 2026-04-28 21:35 | 39.56688 | -9.33302 | 37886 ft | 473 kts | 12° |
| 2026-04-28 21:36 | 39.63086 | -9.31275 | 37885 ft | 473 kts | 12° |
| 2026-04-28 21:36 | 39.69474 | -9.29246 | 37886 ft | 472 kts | 13° |
| 2026-04-28 21:37 | 39.75823 | -9.27226 | 37877 ft | 472 kts | 13° |
| 2026-04-28 21:37 | 39.82201 | -9.25193 | 37877 ft | 471 kts | 13° |
| 2026-04-28 21:38 | 39.88563 | -9.23161 | 37880 ft | 470 kts | 13° |
| 2026-04-28 21:38 | 39.94917 | -9.21128 | 37872 ft | 470 kts | 13° |
| 2026-04-28 21:39 | 40.01263 | -9.19093 | 37875 ft | 469 kts | 13° |
| 2026-04-28 21:39 | 40.07583 | -9.17063 | 37877 ft | 469 kts | 13° |
| 2026-04-28 21:40 | 40.13922 | -9.15023 | 37890 ft | 469 kts | 13° |
| 2026-04-28 21:40 | 40.20253 | -9.12982 | 37879 ft | 469 kts | 13° |
| 2026-04-28 21:41 | 40.26585 | -9.10936 | 37879 ft | 469 kts | 13° |
| 2026-04-28 21:41 | 40.32921 | -9.08885 | 37861 ft | 469 kts | 13° |
| 2026-04-28 21:42 | 40.39254 | -9.06831 | 37868 ft | 469 kts | 13° |
| 2026-04-28 21:42 | 40.45585 | -9.04773 | 37874 ft | 469 kts | 13° |
| 2026-04-28 21:43 | 40.51890 | -9.02720 | 37873 ft | 470 kts | 13° |
| 2026-04-28 21:43 | 40.58239 | -9.00649 | 37876 ft | 470 kts | 13° |
| 2026-04-28 21:44 | 40.64595 | -8.98572 | 37870 ft | 470 kts | 13° |
| 2026-04-28 21:44 | 40.70949 | -8.96491 | 37866 ft | 471 kts | 13° |
| 2026-04-28 21:45 | 40.77309 | -8.94403 | 37863 ft | 471 kts | 13° |
| 2026-04-28 21:45 | 40.83660 | -8.92315 | 37863 ft | 471 kts | 13° |
| 2026-04-28 21:46 | 40.90037 | -8.90214 | 37860 ft | 471 kts | 13° |
| 2026-04-28 21:46 | 40.96357 | -8.88128 | 37856 ft | 470 kts | 13° |
| 2026-04-28 21:47 | 41.02706 | -8.86028 | 37852 ft | 470 kts | 13° |
| 2026-04-28 21:47 | 41.08029 | -8.84264 | 37838 ft | 470 kts | 13° |
| 2026-04-28 21:48 | 41.14334 | -8.82171 | 37834 ft | 470 kts | 13° |
| 2026-04-28 21:48 | 41.20675 | -8.80061 | 37830 ft | 470 kts | 13° |
| 2026-04-28 21:49 | 41.27009 | -8.77950 | 37832 ft | 469 kts | 13° |
| 2026-04-28 21:49 | 41.33346 | -8.75833 | 37831 ft | 469 kts | 13° |
| 2026-04-28 21:50 | 41.39679 | -8.73713 | 37835 ft | 469 kts | 13° |
| 2026-04-28 21:50 | 41.46019 | -8.71648 | 37830 ft | 469 kts | 12° |
| 2026-04-28 21:51 | 41.52387 | -8.69741 | 37839 ft | 469 kts | 11° |
| 2026-04-28 21:51 | 41.58755 | -8.67840 | 37842 ft | 469 kts | 11° |
| 2026-04-28 21:52 | 41.65121 | -8.65910 | 37835 ft | 469 kts | 11° |
| 2026-04-28 21:52 | 41.71488 | -8.63967 | 37842 ft | 469 kts | 11° |
| 2026-04-28 21:53 | 41.77847 | -8.62022 | 37840 ft | 469 kts | 11° |
| 2026-04-28 21:53 | 41.84215 | -8.60069 | 37836 ft | 469 kts | 12° |
| 2026-04-28 21:54 | 41.90386 | -8.57244 | 37851 ft | 470 kts | 20° |
| 2026-04-28 21:54 | 41.96394 | -8.53916 | 37836 ft | 470 kts | 21° |
| 2026-04-28 21:55 | 42.02434 | -8.50567 | 37835 ft | 469 kts | 21° |
| 2026-04-28 21:55 | 42.08480 | -8.47279 | 37847 ft | 468 kts | 20° |
| 2026-04-28 21:56 | 42.14527 | -8.44021 | 37857 ft | 468 kts | 20° |
| 2026-04-28 21:56 | 42.20567 | -8.40769 | 37850 ft | 467 kts | 20° |
| 2026-04-28 21:57 | 42.26601 | -8.37510 | 37855 ft | 467 kts | 20° |
| 2026-04-28 21:57 | 42.32629 | -8.34246 | 37864 ft | 466 kts | 20° |
| 2026-04-28 21:58 | 42.38640 | -8.30984 | 37863 ft | 465 kts | 20° |
| 2026-04-28 21:58 | 42.44633 | -8.27725 | 37874 ft | 464 kts | 20° |
| 2026-04-28 21:59 | 42.50615 | -8.24465 | 37876 ft | 463 kts | 20° |
| 2026-04-28 22:00 | 42.59579 | -8.19567 | 37877 ft | 463 kts | 20° |
| 2026-04-28 22:00 | 42.65512 | -8.16318 | 37891 ft | 462 kts | 20° |
| 2026-04-28 22:01 | 42.71478 | -8.13043 | 37891 ft | 463 kts | 20° |
| 2026-04-28 22:01 | 42.77439 | -8.09764 | 37892 ft | 462 kts | 20° |
| 2026-04-28 22:02 | 42.83412 | -8.06472 | 37895 ft | 462 kts | 20° |
| 2026-04-28 22:02 | 42.89370 | -8.03181 | 37903 ft | 463 kts | 20° |
| 2026-04-28 22:03 | 42.95332 | -7.99881 | 37909 ft | 462 kts | 20° |
| 2026-04-28 22:03 | 43.01298 | -7.96572 | 37908 ft | 462 kts | 20° |
| 2026-04-28 22:04 | 43.07256 | -7.93260 | 37912 ft | 462 kts | 20° |
| 2026-04-28 22:04 | 43.13215 | -7.89941 | 37913 ft | 463 kts | 20° |
| 2026-04-28 22:05 | 43.19186 | -7.86608 | 37933 ft | 463 kts | 19° |
| 2026-04-28 22:05 | 43.25141 | -7.83277 | 37920 ft | 462 kts | 19° |
| 2026-04-28 22:06 | 43.31094 | -7.79940 | 37928 ft | 462 kts | 19° |
| 2026-04-28 22:06 | 43.37042 | -7.76599 | 37934 ft | 461 kts | 19° |
| 2026-04-28 22:07 | 43.42965 | -7.73263 | 37935 ft | 459 kts | 19° |
| 2026-04-28 22:07 | 43.48860 | -7.69938 | 37930 ft | 457 kts | 19° |
| 2026-04-28 22:08 | 43.54741 | -7.66613 | 37934 ft | 455 kts | 19° |
| 2026-04-28 22:08 | 43.60560 | -7.63315 | 37951 ft | 452 kts | 19° |
| 2026-04-28 22:09 | 43.66335 | -7.60038 | 37945 ft | 451 kts | 19° |
| 2026-04-28 22:09 | 43.72134 | -7.56740 | 37959 ft | 450 kts | 19° |
| 2026-04-28 22:10 | 43.77922 | -7.53441 | 37955 ft | 450 kts | 19° |
| 2026-04-28 22:10 | 43.83719 | -7.50129 | 37965 ft | 451 kts | 19° |
| 2026-04-28 22:11 | 43.89525 | -7.46806 | 37962 ft | 452 kts | 19° |
| 2026-04-28 22:11 | 43.95341 | -7.43469 | 37972 ft | 453 kts | 19° |
| 2026-04-28 22:12 | 44.01183 | -7.40110 | 37990 ft | 455 kts | 19° |
| 2026-04-28 22:12 | 44.07036 | -7.36738 | 37982 ft | 456 kts | 19° |
| 2026-04-28 22:13 | 44.12909 | -7.33347 | 37975 ft | 457 kts | 19° |
| 2026-04-28 22:13 | 44.18786 | -7.29946 | 37981 ft | 458 kts | 19° |
| 2026-04-28 22:14 | 44.24666 | -7.26536 | 37983 ft | 458 kts | 19° |
| 2026-04-28 22:14 | 44.30507 | -7.23141 | 37988 ft | 457 kts | 19° |
| 2026-04-28 22:15 | 44.36369 | -7.19726 | 37980 ft | 457 kts | 19° |
| 2026-04-28 22:15 | 44.42228 | -7.16306 | 38005 ft | 456 kts | 19° |
| 2026-04-28 22:16 | 44.48077 | -7.12885 | 37991 ft | 455 kts | 19° |
| 2026-04-28 22:16 | 44.53903 | -7.09469 | 37988 ft | 454 kts | 19° |
| 2026-04-28 22:17 | 44.59724 | -7.06049 | 37992 ft | 453 kts | 19° |
| 2026-04-28 22:17 | 44.65542 | -7.02623 | 37998 ft | 453 kts | 19° |
| 2026-04-28 22:18 | 44.71349 | -6.99196 | 37998 ft | 452 kts | 19° |
| 2026-04-28 22:18 | 44.77143 | -6.95770 | 37999 ft | 452 kts | 19° |
| 2026-04-28 22:19 | 44.82937 | -6.92332 | 38012 ft | 452 kts | 20° |
| 2026-04-28 22:19 | 44.88513 | -6.88165 | 38008 ft | 455 kts | 27° |
| 2026-04-28 22:20 | 44.93940 | -6.83580 | 37999 ft | 456 kts | 27° |
| 2026-04-28 22:20 | 44.99347 | -6.79015 | 38022 ft | 456 kts | 27° |
| 2026-04-28 22:21 | 45.04813 | -6.74463 | 38008 ft | 457 kts | 26° |
| 2026-04-28 22:21 | 45.10298 | -6.69922 | 38012 ft | 457 kts | 26° |
| 2026-04-28 22:22 | 45.15788 | -6.65374 | 38003 ft | 457 kts | 26° |
| 2026-04-28 22:22 | 45.21275 | -6.60816 | 38013 ft | 457 kts | 27° |
| 2026-04-28 22:23 | 45.26760 | -6.56247 | 38028 ft | 458 kts | 27° |
| 2026-04-28 22:23 | 45.32265 | -6.51651 | 38008 ft | 459 kts | 27° |
| 2026-04-28 22:24 | 45.37765 | -6.47048 | 38017 ft | 460 kts | 27° |
| 2026-04-28 22:24 | 45.43282 | -6.42421 | 37996 ft | 461 kts | 28° |
| 2026-04-28 22:25 | 45.48807 | -6.37776 | 38006 ft | 462 kts | 28° |
| 2026-04-28 22:25 | 45.54342 | -6.33112 | 38015 ft | 463 kts | 28° |
| 2026-04-28 22:26 | 45.59888 | -6.28428 | 38012 ft | 464 kts | 28° |
| 2026-04-28 22:26 | 45.65444 | -6.23725 | 38011 ft | 465 kts | 28° |
| 2026-04-28 22:27 | 45.71011 | -6.19001 | 38020 ft | 465 kts | 28° |
| 2026-04-28 22:27 | 45.76581 | -6.14264 | 38016 ft | 466 kts | 28° |
| 2026-04-28 22:28 | 45.82155 | -6.09512 | 38031 ft | 466 kts | 29° |
| 2026-04-28 22:28 | 45.87724 | -6.04753 | 38022 ft | 465 kts | 29° |
| 2026-04-28 22:29 | 45.93238 | -6.00030 | 38015 ft | 464 kts | 29° |
| 2026-04-28 22:29 | 45.98769 | -5.95281 | 38018 ft | 462 kts | 29° |
| 2026-04-28 22:30 | 46.04283 | -5.90536 | 38033 ft | 461 kts | 28° |
| 2026-04-28 22:30 | 46.09775 | -5.85799 | 38024 ft | 460 kts | 29° |
| 2026-04-28 22:31 | 46.15246 | -5.81068 | 38022 ft | 458 kts | 29° |
| 2026-04-28 22:31 | 46.20707 | -5.76336 | 38028 ft | 458 kts | 29° |
| 2026-04-28 22:32 | 46.26162 | -5.71597 | 38037 ft | 457 kts | 29° |
| 2026-04-28 22:32 | 46.31610 | -5.66854 | 38026 ft | 457 kts | 29° |
| 2026-04-28 22:33 | 46.37046 | -5.62110 | 38033 ft | 456 kts | 29° |
| 2026-04-28 22:33 | 46.42484 | -5.57352 | 38037 ft | 456 kts | 29° |
| 2026-04-28 22:34 | 46.47924 | -5.52581 | 38042 ft | 457 kts | 29° |
| 2026-04-28 22:34 | 46.53364 | -5.47799 | 38035 ft | 457 kts | 29° |
| 2026-04-28 22:35 | 46.58766 | -5.43040 | 38039 ft | 456 kts | 29° |
| 2026-04-28 22:35 | 46.64188 | -5.38253 | 38037 ft | 456 kts | 29° |
| 2026-04-28 22:36 | 46.69610 | -5.33459 | 38040 ft | 455 kts | 29° |
| 2026-04-28 22:36 | 46.75024 | -5.28661 | 38044 ft | 454 kts | 29° |
| 2026-04-28 22:37 | 46.79521 | -5.24666 | 38034 ft | 455 kts | 30° |
| 2026-04-28 22:37 | 46.85811 | -5.19063 | 38061 ft | 456 kts | 30° |
| 2026-04-28 22:38 | 46.91238 | -5.14217 | 38052 ft | 457 kts | 30° |
| 2026-04-28 22:38 | 46.95759 | -5.10172 | 38047 ft | 458 kts | 30° |
| 2026-04-28 22:39 | 47.01184 | -5.05306 | 38045 ft | 457 kts | 30° |
| 2026-04-28 22:39 | 47.06624 | -5.00415 | 38049 ft | 457 kts | 30° |
| 2026-04-28 22:40 | 47.12010 | -4.95560 | 38051 ft | 456 kts | 30° |
| 2026-04-28 22:40 | 47.17416 | -4.90677 | 38051 ft | 455 kts | 31° |
| 2026-04-28 22:41 | 47.22811 | -4.85791 | 38052 ft | 454 kts | 31° |
| 2026-04-28 22:41 | 47.28183 | -4.80914 | 38053 ft | 453 kts | 31° |
| 2026-04-28 22:42 | 47.33550 | -4.76030 | 38055 ft | 452 kts | 31° |
| 2026-04-28 22:42 | 47.38864 | -4.71182 | 38059 ft | 451 kts | 31° |
| 2026-04-28 22:43 | 47.44196 | -4.66307 | 38051 ft | 450 kts | 31° |
| 2026-04-28 22:43 | 47.49521 | -4.61426 | 38060 ft | 450 kts | 31° |
| 2026-04-28 22:44 | 47.54845 | -4.56534 | 38071 ft | 449 kts | 31° |
| 2026-04-28 22:44 | 47.60133 | -4.51664 | 38058 ft | 449 kts | 31° |
| 2026-04-28 22:45 | 47.65443 | -4.46760 | 38061 ft | 449 kts | 31° |
| 2026-04-28 22:45 | 47.70752 | -4.41846 | 38061 ft | 449 kts | 31° |
| 2026-04-28 22:46 | 47.76019 | -4.36960 | 38068 ft | 449 kts | 31° |
| 2026-04-28 22:46 | 47.81351 | -4.32099 | 38064 ft | 449 kts | 27° |
| 2026-04-28 22:47 | 47.87193 | -4.28917 | 38082 ft | 448 kts | 15° |
| 2026-04-28 22:47 | 47.93196 | -4.26453 | 38073 ft | 448 kts | 15° |
| 2026-04-28 22:48 | 47.99199 | -4.23971 | 38068 ft | 448 kts | 15° |
| 2026-04-28 22:48 | 48.05197 | -4.21425 | 38081 ft | 448 kts | 16° |
| 2026-04-28 22:49 | 48.11189 | -4.18848 | 38077 ft | 448 kts | 16° |
| 2026-04-28 22:49 | 48.17179 | -4.16261 | 38083 ft | 448 kts | 17° |
| 2026-04-28 22:50 | 48.23170 | -4.13669 | 38094 ft | 448 kts | 17° |
| 2026-04-28 22:50 | 48.29161 | -4.11071 | 38098 ft | 448 kts | 17° |
| 2026-04-28 22:51 | 48.35155 | -4.08467 | 38093 ft | 448 kts | 17° |
| 2026-04-28 22:51 | 48.41095 | -4.05880 | 38101 ft | 447 kts | 17° |
| 2026-04-28 22:52 | 48.47062 | -4.03275 | 38104 ft | 446 kts | 17° |
| 2026-04-28 22:52 | 48.53011 | -4.00671 | 38111 ft | 445 kts | 17° |
| 2026-04-28 22:53 | 48.58950 | -3.98065 | 38112 ft | 444 kts | 18° |
| 2026-04-28 22:53 | 48.64856 | -3.95467 | 38117 ft | 441 kts | 18° |
| 2026-04-28 22:54 | 48.70743 | -3.92871 | 38120 ft | 439 kts | 18° |
| 2026-04-28 22:54 | 48.76593 | -3.90286 | 38128 ft | 437 kts | 18° |
| 2026-04-28 22:55 | 48.82434 | -3.87697 | 38136 ft | 437 kts | 18° |
| 2026-04-28 22:55 | 48.88277 | -3.85100 | 38142 ft | 438 kts | 18° |
| 2026-04-28 22:56 | 48.94136 | -3.82492 | 38148 ft | 439 kts | 18° |
| 2026-04-28 22:56 | 48.99966 | -3.80595 | 38139 ft | 444 kts | 6° |
| 2026-04-28 22:57 | 49.06202 | -3.80234 | 38149 ft | 446 kts | 5° |
| 2026-04-28 22:57 | 49.12373 | -3.79966 | 38143 ft | 447 kts | 4° |
| 2026-04-28 22:58 | 49.18586 | -3.79633 | 38135 ft | 447 kts | 4° |
| 2026-04-28 22:58 | 49.24804 | -3.79260 | 38138 ft | 447 kts | 5° |
| 2026-04-28 22:59 | 49.31011 | -3.78878 | 38161 ft | 446 kts | 5° |
| 2026-04-28 22:59 | 49.37204 | -3.78496 | 38162 ft | 445 kts | 5° |
| 2026-04-28 23:00 | 49.43374 | -3.78117 | 38165 ft | 443 kts | 5° |
| 2026-04-28 23:00 | 49.49534 | -3.77738 | 38161 ft | 442 kts | 6° |
| 2026-04-28 23:01 | 49.55682 | -3.77357 | 38180 ft | 442 kts | 5° |
| 2026-04-28 23:01 | 49.61840 | -3.76976 | 38173 ft | 442 kts | 5° |
| 2026-04-28 23:02 | 49.67987 | -3.76591 | 38181 ft | 442 kts | 6° |
| 2026-04-28 23:02 | 49.73950 | -3.74998 | 38188 ft | 437 kts | 18° |
| 2026-04-28 23:03 | 49.79857 | -3.72659 | 38189 ft | 438 kts | 18° |
| 2026-04-28 23:03 | 49.85791 | -3.70321 | 38198 ft | 440 kts | 18° |
| 2026-04-28 23:04 | 49.91720 | -3.68033 | 38195 ft | 442 kts | 17° |
| 2026-04-28 23:04 | 50.00675 | -3.64600 | 38207 ft | 443 kts | 17° |
| 2026-04-28 23:05 | 50.06678 | -3.62293 | 38207 ft | 442 kts | 17° |
| 2026-04-28 23:05 | 50.12650 | -3.59990 | 38215 ft | 442 kts | 17° |
| 2026-04-28 23:06 | 50.18578 | -3.57698 | 38215 ft | 440 kts | 17° |
| 2026-04-28 23:06 | 50.24506 | -3.55400 | 38214 ft | 437 kts | 17° |
| 2026-04-28 23:07 | 50.30397 | -3.53109 | 38222 ft | 434 kts | 17° |
| 2026-04-28 23:07 | 50.36213 | -3.50842 | 38223 ft | 432 kts | 17° |
| 2026-04-28 23:08 | 50.42073 | -3.48811 | 38229 ft | 432 kts | 12° |
| 2026-04-28 23:08 | 50.48038 | -3.47683 | 38242 ft | 431 kts | 10° |
| 2026-04-28 23:09 | 50.54001 | -3.46668 | 38240 ft | 430 kts | 10° |
| 2026-04-28 23:09 | 50.59933 | -3.45591 | 38224 ft | 429 kts | 11° |
| 2026-04-28 23:10 | 50.65861 | -3.44468 | 38260 ft | 429 kts | 11° |
| 2026-04-28 23:10 | 50.71739 | -3.43340 | 38267 ft | 429 kts | 11° |
| 2026-04-28 23:11 | 50.77660 | -3.42201 | 38266 ft | 429 kts | 11° |
| 2026-04-28 23:11 | 50.83595 | -3.41058 | 38251 ft | 430 kts | 11° |
| 2026-04-28 23:12 | 50.89541 | -3.39910 | 38268 ft | 430 kts | 12° |
| 2026-04-28 23:12 | 50.95479 | -3.38761 | 38265 ft | 431 kts | 12° |
| 2026-04-28 23:13 | 51.01437 | -3.37605 | 38289 ft | 431 kts | 12° |
| 2026-04-28 23:13 | 51.07393 | -3.36446 | 38279 ft | 431 kts | 12° |
| 2026-04-28 23:14 | 51.13347 | -3.35285 | 38297 ft | 431 kts | 12° |
| 2026-04-28 23:14 | 51.19291 | -3.34123 | 38296 ft | 431 kts | 12° |
| 2026-04-28 23:15 | 51.25242 | -3.32936 | 38276 ft | 431 kts | 11° |
| 2026-04-28 23:15 | 51.31162 | -3.31739 | 38296 ft | 430 kts | 12° |
| 2026-04-28 23:16 | 51.37060 | -3.30545 | 38290 ft | 430 kts | 12° |
| 2026-04-28 23:16 | 51.43032 | -3.29334 | 38291 ft | 430 kts | 12° |
| 2026-04-28 23:17 | 51.48883 | -3.28145 | 38293 ft | 430 kts | 12° |
| 2026-04-28 23:17 | 51.54818 | -3.26937 | 38282 ft | 430 kts | 12° |
| 2026-04-28 23:18 | 51.60705 | -3.25735 | 38305 ft | 429 kts | 12° |
| 2026-04-28 23:18 | 51.66631 | -3.24521 | 38400 ft | 430 kts | 12° |
| 2026-04-28 23:19 | 51.72506 | -3.23315 | 38411 ft | 430 kts | 12° |
| 2026-04-28 23:19 | 51.78435 | -3.22094 | 38398 ft | 429 kts | 12° |
| 2026-04-28 23:20 | 51.84360 | -3.20872 | 38394 ft | 429 kts | 12° |
| 2026-04-28 23:20 | 51.90277 | -3.19654 | 38395 ft | 429 kts | 11° |
| 2026-04-28 23:21 | 51.96223 | -3.18987 | 38395 ft | 431 kts | 7° |
| 2026-04-28 23:21 | 52.02218 | -3.18623 | 38351 ft | 430 kts | 7° |
| 2026-04-28 23:22 | 52.07174 | -3.18306 | 38363 ft | 428 kts | 7° |
| 2026-04-28 23:22 | 52.14104 | -3.17802 | 38360 ft | 425 kts | 8° |
| 2026-04-28 23:23 | 52.19950 | -3.17352 | 38366 ft | 422 kts | 8° |
| 2026-04-28 23:23 | 52.25804 | -3.16898 | 38355 ft | 420 kts | 8° |
| 2026-04-28 23:24 | 52.31624 | -3.16447 | 38368 ft | 418 kts | 8° |
| 2026-04-28 23:24 | 52.37431 | -3.15994 | 38384 ft | 417 kts | 8° |
| 2026-04-28 23:25 | 52.43221 | -3.15543 | 38388 ft | 417 kts | 8° |
| 2026-04-28 23:25 | 52.49016 | -3.15090 | 38364 ft | 417 kts | 8° |
| 2026-04-28 23:26 | 52.54820 | -3.14636 | 38395 ft | 418 kts | 8° |
| 2026-04-28 23:26 | 52.60641 | -3.14179 | 38400 ft | 419 kts | 8° |
| 2026-04-28 23:27 | 52.66479 | -3.13720 | 38405 ft | 421 kts | 8° |
| 2026-04-28 23:27 | 52.72238 | -3.12547 | 38412 ft | 413 kts | 20° |
| 2026-04-28 23:28 | 52.77495 | -3.08989 | 38411 ft | 408 kts | 30° |
| 2026-04-28 23:28 | 52.82604 | -3.04882 | 38416 ft | 409 kts | 30° |
| 2026-04-28 23:29 | 52.87717 | -3.00854 | 38406 ft | 410 kts | 29° |
| 2026-04-28 23:29 | 52.93036 | -2.97158 | 38425 ft | 413 kts | 24° |
| 2026-04-28 23:30 | 52.98419 | -2.93959 | 38389 ft | 414 kts | 24° |
| 2026-04-28 23:30 | 53.03832 | -2.90681 | 38415 ft | 414 kts | 24° |
| 2026-04-28 23:31 | 53.09071 | -2.86859 | 38068 ft | 407 kts | 36° |
| 2026-04-28 23:31 | 53.11346 | -2.84247 | 37792 ft | 398 kts | 38° |
| 2026-04-28 23:31 | 53.13158 | -2.82117 | 37481 ft | 393 kts | 38° |
| 2026-04-28 23:32 | 53.14933 | -2.80033 | 37182 ft | 388 kts | 38° |
| 2026-04-28 23:32 | 53.16158 | -2.78601 | 36965 ft | 386 kts | 38° |
| 2026-04-28 23:32 | 53.18274 | -2.76139 | 36635 ft | 380 kts | 38° |
| 2026-04-28 23:32 | 53.20410 | -2.73665 | 36268 ft | 376 kts | 38° |
| 2026-04-28 23:33 | 53.22543 | -2.71199 | 35882 ft | 372 kts | 38° |
| 2026-04-28 23:33 | 53.24653 | -2.68757 | 35557 ft | 366 kts | 38° |
| 2026-04-28 23:33 | 53.26735 | -2.66351 | 35264 ft | 361 kts | 38° |
| 2026-04-28 23:33 | 53.28779 | -2.64001 | 35019 ft | 353 kts | 39° |
| 2026-04-28 23:34 | 53.30784 | -2.61698 | 34764 ft | 346 kts | 39° |
| 2026-04-28 23:34 | 53.32750 | -2.59434 | 34465 ft | 342 kts | 39° |
| 2026-04-28 23:34 | 53.34692 | -2.57193 | 34091 ft | 338 kts | 39° |
| 2026-04-28 23:34 | 53.36622 | -2.54963 | 33761 ft | 335 kts | 39° |
| 2026-04-28 23:35 | 53.38530 | -2.52754 | 33402 ft | 331 kts | 40° |
| 2026-04-28 23:35 | 53.40414 | -2.50570 | 33063 ft | 328 kts | 40° |
| 2026-04-28 23:35 | 53.42279 | -2.48408 | 32746 ft | 324 kts | 40° |
| 2026-04-28 23:35 | 53.44122 | -2.46269 | 32406 ft | 321 kts | 40° |
| 2026-04-28 23:36 | 53.45954 | -2.44140 | 32081 ft | 319 kts | 40° |
| 2026-04-28 23:36 | 53.47765 | -2.42030 | 31759 ft | 316 kts | 40° |
| 2026-04-28 23:36 | 53.49559 | -2.39916 | 31430 ft | 313 kts | 40° |
| 2026-04-28 23:36 | 53.51329 | -2.37819 | 31115 ft | 312 kts | 40° |
| 2026-04-28 23:37 | 53.53122 | -2.35688 | 30807 ft | 320 kts | 40° |
| 2026-04-28 23:37 | 53.54978 | -2.33475 | 30475 ft | 333 kts | 40° |
| 2026-04-28 23:37 | 53.56872 | -2.31222 | 30067 ft | 333 kts | 40° |
| 2026-04-28 23:37 | 53.58749 | -2.28996 | 29717 ft | 328 kts | 40° |
| 2026-04-28 23:38 | 53.60603 | -2.26797 | 29361 ft | 323 kts | 40° |
| 2026-04-28 23:38 | 53.62431 | -2.24623 | 29036 ft | 319 kts | 40° |
| 2026-04-28 23:38 | 53.64228 | -2.22480 | 28690 ft | 315 kts | 40° |
| 2026-04-28 23:38 | 53.66009 | -2.20354 | 28343 ft | 312 kts | 40° |
| 2026-04-28 23:39 | 53.67771 | -2.18247 | 28017 ft | 309 kts | 41° |
| 2026-04-28 23:39 | 53.69514 | -2.16163 | 27692 ft | 306 kts | 41° |
| 2026-04-28 23:39 | 53.71241 | -2.14096 | 27367 ft | 303 kts | 41° |
| 2026-04-28 23:39 | 53.72953 | -2.12043 | 27012 ft | 301 kts | 40° |
| 2026-04-28 23:40 | 53.74676 | -2.10128 | 26703 ft | 303 kts | 32° |
| 2026-04-28 23:40 | 53.76664 | -2.08800 | 26328 ft | 309 kts | 26° |
| 2026-04-28 23:40 | 53.78700 | -2.07623 | 25984 ft | 311 kts | 25° |
| 2026-04-28 23:40 | 53.80774 | -2.06438 | 25678 ft | 320 kts | 25° |
| 2026-04-28 23:41 | 53.82907 | -2.05209 | 25356 ft | 327 kts | 25° |
| 2026-04-28 23:41 | 53.85060 | -2.03962 | 25007 ft | 326 kts | 25° |
| 2026-04-28 23:41 | 53.87197 | -2.02717 | 24670 ft | 323 kts | 25° |
| 2026-04-28 23:41 | 53.89314 | -2.01474 | 24342 ft | 321 kts | 25° |
| 2026-04-28 23:42 | 53.91414 | -2.00234 | 24009 ft | 319 kts | 25° |
| 2026-04-28 23:42 | 53.93504 | -1.98995 | 23632 ft | 317 kts | 25° |
| 2026-04-28 23:42 | 53.95570 | -1.97768 | 23286 ft | 313 kts | 25° |
| 2026-04-28 23:42 | 53.97603 | -1.96558 | 22971 ft | 310 kts | 25° |
| 2026-04-28 23:43 | 53.99627 | -1.95352 | 22660 ft | 306 kts | 25° |
| 2026-04-28 23:43 | 54.01664 | -1.94311 | 22018 ft | 309 kts | 19° |
| 2026-04-28 23:43 | 54.03783 | -1.93504 | 21284 ft | 314 kts | 17° |
| 2026-04-28 23:43 | 54.05921 | -1.92765 | 20693 ft | 312 kts | 17° |
| 2026-04-28 23:44 | 54.08035 | -1.92044 | 20198 ft | 308 kts | 17° |
| 2026-04-28 23:44 | 54.10125 | -1.91318 | 19649 ft | 305 kts | 17° |
| 2026-04-28 23:44 | 54.12191 | -1.90587 | 19106 ft | 302 kts | 17° |
| 2026-04-28 23:44 | 54.14239 | -1.89851 | 18569 ft | 300 kts | 17° |
| 2026-04-28 23:45 | 54.16268 | -1.89115 | 17991 ft | 297 kts | 17° |
| 2026-04-28 23:45 | 54.18285 | -1.88379 | 17413 ft | 295 kts | 17° |
| 2026-04-28 23:45 | 54.20287 | -1.87643 | 16833 ft | 293 kts | 17° |
| 2026-04-28 23:45 | 54.22274 | -1.86910 | 16276 ft | 291 kts | 17° |
| 2026-04-28 23:46 | 54.24249 | -1.86181 | 15734 ft | 289 kts | 17° |
| 2026-04-28 23:46 | 54.26199 | -1.85459 | 15308 ft | 284 kts | 18° |
| 2026-04-28 23:46 | 54.28102 | -1.84757 | 14980 ft | 275 kts | 18° |
| 2026-04-28 23:46 | 54.29943 | -1.84077 | 14697 ft | 267 kts | 18° |
| 2026-04-28 23:47 | 54.31738 | -1.83412 | 14418 ft | 261 kts | 18° |
| 2026-04-28 23:47 | 54.33497 | -1.82756 | 14156 ft | 259 kts | 18° |
| 2026-04-28 23:47 | 54.35276 | -1.82088 | 13907 ft | 266 kts | 18° |
| 2026-04-28 23:47 | 54.37132 | -1.81387 | 13622 ft | 278 kts | 18° |
| 2026-04-28 23:48 | 54.39034 | -1.80673 | 13316 ft | 280 kts | 18° |
| 2026-04-28 23:48 | 54.40920 | -1.79972 | 13019 ft | 274 kts | 18° |
| 2026-04-28 23:48 | 54.42759 | -1.79289 | 12770 ft | 267 kts | 18° |
| 2026-04-28 23:48 | 54.44556 | -1.78620 | 12496 ft | 262 kts | 18° |
| 2026-04-28 23:49 | 54.46321 | -1.77961 | 12225 ft | 258 kts | 18° |
| 2026-04-28 23:49 | 54.48073 | -1.77303 | 11975 ft | 258 kts | 18° |
| 2026-04-28 23:49 | 54.49809 | -1.76650 | 11738 ft | 260 kts | 18° |
| 2026-04-28 23:49 | 54.51609 | -1.75968 | 11485 ft | 269 kts | 18° |
| 2026-04-28 23:50 | 54.53455 | -1.75272 | 11198 ft | 273 kts | 17° |
| 2026-04-28 23:50 | 54.55357 | -1.75120 | 10880 ft | 281 kts | 352° |
| 2026-04-28 23:50 | 54.57220 | -1.76177 | 10676 ft | 282 kts | 346° |
| 2026-04-28 23:50 | 54.59073 | -1.77308 | 10428 ft | 283 kts | 346° |
| 2026-04-28 23:51 | 54.60913 | -1.78422 | 10175 ft | 283 kts | 346° |
| 2026-04-28 23:51 | 54.62772 | -1.79543 | 9914 ft | 283 kts | 346° |
| 2026-04-28 23:51 | 54.64634 | -1.80662 | 9657 ft | 284 kts | 346° |
| 2026-04-28 23:51 | 54.66503 | -1.81783 | 9394 ft | 284 kts | 346° |
| 2026-04-28 23:52 | 54.68373 | -1.82900 | 9140 ft | 285 kts | 346° |
| 2026-04-28 23:52 | 54.70247 | -1.84018 | 8881 ft | 285 kts | 346° |
| 2026-04-28 23:52 | 54.72108 | -1.85126 | 8626 ft | 281 kts | 346° |
| 2026-04-28 23:52 | 54.73948 | -1.86222 | 8348 ft | 277 kts | 346° |
| 2026-04-28 23:53 | 54.75743 | -1.87293 | 8097 ft | 270 kts | 346° |
| 2026-04-28 23:53 | 54.77491 | -1.88334 | 7828 ft | 261 kts | 346° |
| 2026-04-28 23:53 | 54.79179 | -1.89343 | 7568 ft | 252 kts | 346° |
| 2026-04-28 23:53 | 54.80807 | -1.90322 | 7325 ft | 247 kts | 346° |
| 2026-04-28 23:54 | 54.82431 | -1.91299 | 7088 ft | 246 kts | 346° |
| 2026-04-28 23:54 | 54.84047 | -1.92269 | 6848 ft | 246 kts | 346° |
| 2026-04-28 23:54 | 54.85658 | -1.93234 | 6505 ft | 243 kts | 346° |
| 2026-04-28 23:54 | 54.87221 | -1.94174 | 6125 ft | 234 kts | 346° |
| 2026-04-28 23:55 | 54.88734 | -1.95091 | 5716 ft | 227 kts | 346° |
| 2026-04-28 23:55 | 54.90197 | -1.95985 | 5299 ft | 221 kts | 346° |
| 2026-04-28 23:55 | 54.91634 | -1.96866 | 4841 ft | 216 kts | 346° |
| 2026-04-28 23:55 | 54.93045 | -1.97724 | 4398 ft | 213 kts | 347° |
| 2026-04-28 23:56 | 54.94463 | -1.98137 | 3953 ft | 203 kts | 7° |
| 2026-04-28 23:56 | 54.95666 | -1.97258 | 3726 ft | 185 kts | 51° |
| 2026-04-28 23:56 | 54.96417 | -1.95488 | 3518 ft | 184 kts | 58° |
| 2026-04-28 23:56 | 54.97106 | -1.93628 | 3258 ft | 178 kts | 61° |
| 2026-04-28 23:57 | 54.97719 | -1.91826 | 3024 ft | 172 kts | 64° |
| 2026-04-28 23:57 | 54.98250 | -1.89987 | 2796 ft | 168 kts | 67° |
| 2026-04-28 23:57 | 54.98738 | -1.88159 | 2556 ft | 165 kts | 67° |
| 2026-04-28 23:57 | 54.99206 | -1.86379 | 2336 ft | 159 kts | 66° |
| 2026-04-28 23:58 | 54.99660 | -1.84655 | 2126 ft | 154 kts | 66° |
| 2026-04-28 23:58 | 55.00098 | -1.82988 | 1905 ft | 150 kts | 66° |
| 2026-04-28 23:58 | 55.00528 | -1.81355 | 1704 ft | 146 kts | 66° |
| 2026-04-28 23:58 | 55.00945 | -1.79771 | 1496 ft | 143 kts | 66° |
| 2026-04-28 23:59 | 55.01362 | -1.78189 | 1305 ft | 145 kts | 66° |
| 2026-04-28 23:59 | 55.01784 | -1.76585 | 1077 ft | 147 kts | 65° |
| 2026-04-28 23:59 | 55.02215 | -1.74955 | 860 ft | 149 kts | 64° |
| 2026-04-28 23:59 | 55.02650 | -1.73307 | 664 ft | 150 kts | 64° |
| 2026-04-29 00:00 | 55.03080 | -1.71664 | 458 ft | 148 kts | 64° |
| 2026-04-29 00:00 | 55.03502 | -1.70064 | 272 ft | 140 kts | 64° |
| 2026-04-29 00:00 | 55.03852 | -1.68751 | 250 ft | 64 kts | 65° |
| 2026-04-29 00:00 | 55.03953 | -1.68414 | 248 ft | 19 kts | 45° |
| 2026-04-29 00:01 | 55.04061 | -1.68273 | 247 ft | 20 kts | 36° |
| 2026-04-29 00:01 | 55.04154 | -1.68266 | 247 ft | 8 kts | 299° |
| 2026-04-29 00:01 | 55.04139 | -1.68361 | 247 ft | 8 kts | 246° |
| 2026-04-29 00:01 | 55.04113 | -1.68464 | 247 ft | 11 kts | 246° |
| 2026-04-29 00:02 | 55.04062 | -1.68649 | 248 ft | 23 kts | 245° |
| 2026-04-29 00:02 | 55.03990 | -1.68925 | 250 ft | 25 kts | 245° |
| 2026-04-29 00:02 | 55.03918 | -1.69197 | 252 ft | 23 kts | 244° |
| 2026-04-29 00:02 | 55.03851 | -1.69445 | 255 ft | 23 kts | 245° |
| 2026-04-29 00:03 | 55.03800 | -1.69701 | 257 ft | 22 kts | 257° |
| 2026-04-29 00:03 | 55.03776 | -1.69956 | 259 ft | 21 kts | 263° |
| 2026-04-29 00:03 | 55.03777 | -1.70209 | 263 ft | 21 kts | 274° |
| 2026-04-29 00:03 | 55.03795 | -1.70416 | 266 ft | 14 kts | 303° |
| 2026-04-29 00:04 | 55.03859 | -1.70515 | 266 ft | 5 kts | 318° |
| 2026-04-29 00:04 | 55.03874 | -1.70538 | 266 ft | 2 kts | 318° |
| 2026-04-29 00:04 | 55.03875 | -1.70540 | 266 ft | 0 kts | 318° |